Time;durP1;ratioP1;P1;durP2;ratioP2;P2;SDS_P1;SDS_P2;PMS_P1;PMS_P2;Temp;Humidity;BMP_temperature;BMP_pressure;BME280_temperature;BME280_humidity;BME280_pressure;Samples;Min_cycle;Max_cycle;Signal;HPM_P1;HPM_P2
2024/01/24 00:00:11;;;;;;;;;;;;;;;1.50;98.18;99834.31;5072508;28;20353;-76
2024/01/24 00:02:36;;;;;;;;;;;;;;;1.53;98.26;99832.81;5071833;28;20395;-77
2024/01/24 00:05:01;;;;;;;;;;;;;;;1.37;98.74;99834.72;5060456;28;19908;-77
2024/01/24 00:07:28;;;;;;;;;;;;;;;1.31;99.62;99834.19;5072597;28;19914;-78
2024/01/24 00:09:53;;;;;;;;;;;;;;;1.53;99.85;99830.09;5064931;28;20381;-77
2024/01/24 00:12:18;;;;;;;;;;;;;;;1.60;99.52;99838.47;5052743;28;19928;-77
2024/01/24 00:14:43;;;;;;;;;;;;;;;1.52;98.85;99853.00;5034664;28;19966;-77
2024/01/24 00:17:09;;;;;;;;;;;;;;;1.39;99.80;99852.28;5047672;28;19982;-77
2024/01/24 00:19:34;;;;;;;;;;;;;;;1.47;99.52;99856.78;5041996;28;19920;-78
2024/01/24 00:22:00;;;;;;;;;;;;;;;1.60;99.32;99854.81;5041404;28;19923;-78
2024/01/24 00:24:25;;;;;;;;;;;;;;;1.55;99.21;99855.84;5065025;28;19912;-78
2024/01/24 00:26:50;;;;;;;;;;;;;;;1.52;99.57;99861.19;5034945;28;19912;-78
2024/01/24 00:29:16;;;;;;;;;;;;;;;1.58;99.83;99857.88;5072132;28;20360;-78
2024/01/24 00:31:41;;;;;;;;;;;;;;;1.51;100.00;99863.13;5040796;28;20391;-77
2024/01/24 00:34:07;;;;;;;;;;;;;;;1.52;99.27;99867.41;5041095;28;19909;-78
2024/01/24 00:36:32;;;;;;;;;;;;;;;2.21;97.72;99860.66;5071167;28;20372;-78
2024/01/24 00:38:57;;;;;;;;;;;;;;;2.36;95.51;99856.34;5047072;28;20445;-77
2024/01/24 00:41:23;;;;;;;;;;;;;;;2.13;94.99;99864.34;5065589;28;19909;-77
2024/01/24 00:43:48;;;;;;;;;;;;;;;2.00;95.02;99876.47;5054041;28;19922;-77
2024/01/24 00:46:13;;;;;;;;;;;;;;;1.83;96.35;99868.63;5058856;28;19916;-77
2024/01/24 00:48:39;;;;;;;;;;;;;;;1.65;96.87;99865.44;5065608;28;20345;-77
2024/01/24 00:51:04;;;;;;;;;;;;;;;1.60;97.63;99865.69;5034075;28;19923;-78
2024/01/24 00:53:32;;;;;;;;;;;;;;;1.61;98.50;99868.06;5071252;28;20372;-77
2024/01/24 00:55:58;;;;;;;;;;;;;;;1.66;99.65;99868.94;5053979;28;19952;-78
2024/01/24 00:58:23;;;;;;;;;;;;;;;1.61;99.43;99867.28;5053842;28;19958;-77
2024/01/24 01:00:48;;;;;;;;;;;;;;;1.53;99.23;99862.78;5071670;28;19912;-77
2024/01/24 01:03:14;;;;;;;;;;;;;;;1.43;99.64;99864.06;5058254;28;20380;-78
2024/01/24 01:05:39;;;;;;;;;;;;;;;1.45;100.00;99869.16;5053673;28;19915;-77
2024/01/24 01:08:05;;;;;;;;;;;;;;;1.43;100.00;99864.06;5040114;28;19915;-77
2024/01/24 01:10:30;;;;;;;;;;;;;;;1.61;99.94;99868.06;5053821;28;19908;-78
2024/01/24 01:12:56;;;;;;;;;;;;;;;1.92;100.00;99869.28;5053672;28;20304;-78
2024/01/24 01:15:21;;;;;;;;;;;;;;;2.02;98.84;99866.81;5040779;28;19927;-77
2024/01/24 01:17:46;;;;;;;;;;;;;;;2.15;98.51;99886.59;5051464;28;19921;-78
2024/01/24 01:20:14;;;;;;;;;;;;;;;2.19;97.64;99884.75;5045987;28;20009;-78
2024/01/24 01:22:40;;;;;;;;;;;;;;;2.11;97.40;99874.03;5053071;28;19912;-76
2024/01/24 01:25:05;;;;;;;;;;;;;;;2.08;98.34;99880.97;5053487;28;20353;-77
2024/01/24 01:27:31;;;;;;;;;;;;;;;2.02;98.65;99879.66;5071058;28;20002;-77
2024/01/24 01:29:56;;;;;;;;;;;;;;;2.00;98.91;99881.91;5053400;28;19908;-77
2024/01/24 01:32:21;;;;;;;;;;;;;;;2.02;97.77;99858.63;5058136;28;19909;-78
2024/01/24 01:34:46;;;;;;;;;;;;;;;2.35;96.23;99879.31;5058961;28;19912;-77
2024/01/24 01:37:12;;;;;;;;;;;;;;;2.46;95.61;99872.19;5051568;28;19958;-79
2024/01/24 01:39:37;;;;;;;;;;;;;;;2.68;95.35;99876.19;5033359;28;19919;-77
2024/01/24 01:42:03;;;;;;;;;;;;;;;3.00;94.47;99866.78;5053016;28;19908;-77
2024/01/24 01:44:28;;;;;;;;;;;;;;;3.26;94.39;99866.13;5089427;28;19980;-75
2024/01/24 01:46:54;;;;;;;;;;;;;;;3.31;94.01;99884.19;5072118;28;19915;-75
2024/01/24 01:49:19;;;;;;;;;;;;;;;3.14;94.00;99886.19;5067239;28;19913;-77
2024/01/24 01:51:45;;;;;;;;;;;;;;;2.94;93.65;99870.16;5091740;28;19913;-77
2024/01/24 01:54:11;;;;;;;;;;;;;;;2.78;94.58;99876.41;5078221;28;19968;-77
2024/01/24 01:56:36;;;;;;;;;;;;;;;2.71;95.16;99886.41;5054621;28;20439;-77
2024/01/24 01:59:02;;;;;;;;;;;;;;;2.68;96.07;99884.38;5038079;28;20007;-76
2024/01/24 02:01:27;;;;;;;;;;;;;;;2.73;97.05;99873.19;5056142;28;19916;-76
2024/01/24 02:03:53;;;;;;;;;;;;;;;2.81;98.50;99873.00;5037823;28;19932;-77
2024/01/24 02:06:19;;;;;;;;;;;;;;;3.08;98.34;99875.91;5073302;28;19908;-76
2024/01/24 02:08:44;;;;;;;;;;;;;;;3.24;97.40;99868.47;5074967;28;19950;-77
2024/01/24 02:11:10;;;;;;;;;;;;;;;3.37;96.28;99861.72;5056577;28;20436;-76
2024/01/24 02:13:35;;;;;;;;;;;;;;;3.34;96.15;99864.34;5045621;28;19974;-76
2024/01/24 02:16:02;;;;;;;;;;;;;;;3.41;95.88;99859.03;5059362;28;19943;-77
2024/01/24 02:18:28;;;;;;;;;;;;;;;3.41;95.40;99859.03;5056695;28;20354;-77
2024/01/24 02:20:53;;;;;;;;;;;;;;;3.30;96.14;99847.91;5069835;28;19919;-77
2024/01/24 02:23:20;;;;;;;;;;;;;;;3.37;95.98;99860.91;5066358;28;20447;-78
2024/01/24 02:25:48;;;;;;;;;;;;;;;3.28;96.13;99856.44;5061025;28;20007;-77
2024/01/24 02:28:13;;;;;;;;;;;;;;;3.27;96.77;99863.06;5074685;28;19919;-77
2024/01/24 02:30:39;;;;;;;;;;;;;;;3.32;96.20;99861.97;5043179;28;19912;-77
2024/01/24 02:33:04;;;;;;;;;;;;;;;3.27;96.36;99860.31;5063225;28;19981;-78
2024/01/24 02:35:29;;;;;;;;;;;;;;;3.19;96.57;99860.56;5054595;28;20310;-77
2024/01/24 02:37:54;;;;;;;;;;;;;;;3.15;96.71;99849.53;5063355;28;20372;-78
2024/01/24 02:40:20;;;;;;;;;;;;;;;3.05;97.23;99855.56;5049767;28;19916;-77
2024/01/24 02:42:45;;;;;;;;;;;;;;;3.06;97.16;99859.09;5065568;28;20012;-77
2024/01/24 02:45:10;;;;;;;;;;;;;;;3.09;96.60;99855.63;5074226;28;19919;-76
2024/01/24 02:47:36;;;;;;;;;;;;;;;3.06;96.99;99861.84;5045958;28;19912;-77
2024/01/24 02:50:03;;;;;;;;;;;;;;;2.96;97.64;99854.19;5054357;28;19916;-77
2024/01/24 02:52:29;;;;;;;;;;;;;;;2.95;97.80;99858.09;5036612;28;20023;-77
2024/01/24 02:54:54;;;;;;;;;;;;;;;2.95;97.77;99858.88;5058297;28;19913;-78
2024/01/24 02:57:19;;;;;;;;;;;;;;;3.02;97.46;99858.22;5056142;28;19975;-77
2024/01/24 02:59:44;;;;;;;;;;;;;;;3.01;97.30;99848.47;5069330;28;19916;-78
2024/01/24 03:02:10;;;;;;;;;;;;;;;3.02;97.05;99852.75;5064666;28;19991;-76
2024/01/24 03:04:36;;;;;;;;;;;;;;;3.09;96.69;99845.50;5060545;28;19908;-77
2024/01/24 03:07:02;;;;;;;;;;;;;;;3.06;96.38;99850.91;5045380;28;19913;-79
2024/01/24 03:09:27;;;;;;;;;;;;;;;2.98;96.90;99849.97;5054513;28;19908;-77
2024/01/24 03:11:52;;;;;;;;;;;;;;;3.04;96.62;99861.38;5046243;28;20479;-77
2024/01/24 03:14:18;;;;;;;;;;;;;;;3.02;96.80;99855.47;5056071;28;19916;-78
2024/01/24 03:16:43;;;;;;;;;;;;;;;3.04;96.63;99859.44;5055751;28;19977;-78
2024/01/24 03:19:09;;;;;;;;;;;;;;;3.25;95.46;99867.31;5055887;28;19925;-79
2024/01/24 03:21:34;;;;;;;;;;;;;;;3.39;94.37;99869.53;5055896;28;19923;-78
2024/01/24 03:23:59;;;;;;;;;;;;;;;3.30;94.44;99866.22;5073713;28;19920;-78
2024/01/24 03:26:25;;;;;;;;;;;;;;;3.35;94.24;99863.19;5073554;28;20390;-76
2024/01/24 03:28:50;;;;;;;;;;;;;;;3.37;93.95;99861.72;5069101;28;19916;-76
2024/01/24 03:31:15;;;;;;;;;;;;;;;3.30;93.90;99861.56;5035870;28;20296;-77
2024/01/24 03:33:41;;;;;;;;;;;;;;;3.28;94.06;99853.72;5066840;28;19908;-77
2024/01/24 03:36:06;;;;;;;;;;;;;;;3.31;93.44;99857.69;5035703;28;19941;-76
2024/01/24 03:38:33;;;;;;;;;;;;;;;3.19;93.78;99863.28;5070585;28;20362;-78
2024/01/24 03:40:58;;;;;;;;;;;;;;;3.13;94.06;99868.25;5062668;28;20880;-78
2024/01/24 03:43:23;;;;;;;;;;;;;;;3.15;94.01;99868.66;5052949;28;19963;-77
2024/01/24 03:45:49;;;;;;;;;;;;;;;3.08;94.18;99871.22;5035360;28;19920;-77
2024/01/24 03:48:14;;;;;;;;;;;;;;;3.10;94.16;99874.41;5068863;28;20039;-77
2024/01/24 03:50:39;;;;;;;;;;;;;;;3.13;93.05;99865.50;5063626;28;19915;-77
2024/01/24 03:53:05;;;;;;;;;;;;;;;3.05;92.91;99880.16;5051191;28;19966;-77
2024/01/24 03:55:30;;;;;;;;;;;;;;;3.10;93.00;99874.41;5072965;28;20003;-77
2024/01/24 03:57:56;;;;;;;;;;;;;;;3.08;93.08;99870.44;5039268;28;19976;-79
2024/01/24 04:00:21;;;;;;;;;;;;;;;2.98;93.15;99871.00;5053039;28;19913;-77
2024/01/24 04:02:47;;;;;;;;;;;;;;;2.88;93.72;99880.56;5037899;28;19908;-78
2024/01/24 04:05:14;;;;;;;;;;;;;;;2.95;94.04;99864.34;5054890;28;19939;-77
2024/01/24 04:07:39;;;;;;;;;;;;;;;3.13;93.29;99879.16;5072759;28;20011;-78
2024/01/24 04:10:04;;;;;;;;;;;;;;;3.16;92.43;99878.44;5072690;28;19966;-78
2024/01/24 04:12:30;;;;;;;;;;;;;;;3.13;92.35;99879.16;5054014;28;20384;-77
2024/01/24 04:14:56;;;;;;;;;;;;;;;3.17;92.42;99890.16;5054737;28;19915;-77
2024/01/24 04:17:21;;;;;;;;;;;;;;;3.14;92.73;99888.91;5068548;28;20011;-77
2024/01/24 04:19:46;;;;;;;;;;;;;;;3.17;91.97;99890.16;5034613;28;20403;-76
2024/01/24 04:22:11;;;;;;;;;;;;;;;3.03;91.84;99896.09;5068212;28;20372;-79
2024/01/24 04:24:37;;;;;;;;;;;;;;;2.71;93.02;99905.50;5072525;28;19912;-78
2024/01/24 04:27:02;;;;;;;;;;;;;;;2.35;94.14;99903.84;5054459;28;20384;-77
2024/01/24 04:29:28;;;;;;;;;;;;;;;2.09;95.41;99909.03;5072504;28;19912;-77
2024/01/24 04:31:53;;;;;;;;;;;;;;;2.00;96.64;99904.53;5054149;28;19920;-78
2024/01/24 04:34:18;;;;;;;;;;;;;;;1.92;96.48;99901.97;5072411;28;19962;-77
2024/01/24 04:36:44;;;;;;;;;;;;;;;1.94;95.84;99905.13;5069589;28;20304;-78
2024/01/24 04:39:10;;;;;;;;;;;;;;;1.87;97.46;99910.41;5034395;28;20381;-78
2024/01/24 04:41:36;;;;;;;;;;;;;;;1.96;96.59;99911.03;5054484;28;20381;-77
2024/01/24 04:44:01;;;;;;;;;;;;;;;1.91;96.68;99916.72;5054235;28;19970;-77
2024/01/24 04:46:26;;;;;;;;;;;;;;;1.78;96.61;99916.00;5054268;28;20002;-79
2024/01/24 04:48:52;;;;;;;;;;;;;;;1.74;96.13;99922.50;5072005;28;19958;-79
2024/01/24 04:51:17;;;;;;;;;;;;;;;1.61;95.54;99925.28;5071789;28;20396;-77
2024/01/24 04:53:43;;;;;;;;;;;;;;;1.49;95.98;99922.59;5054141;28;19912;-78
2024/01/24 04:56:08;;;;;;;;;;;;;;;1.37;96.90;99930.00;5058274;28;20324;-78
2024/01/24 04:58:33;;;;;;;;;;;;;;;1.23;97.54;99931.16;5064387;28;20281;-79
2024/01/24 05:01:00;;;;;;;;;;;;;;;1.15;97.39;99926.66;5047892;28;19999;-78
2024/01/24 05:03:25;;;;;;;;;;;;;;;0.98;98.03;99926.09;5053739;28;19915;-77
2024/01/24 05:05:51;;;;;;;;;;;;;;;0.94;99.38;99933.38;5071500;28;19913;-77
2024/01/24 05:08:16;;;;;;;;;;;;;;;0.87;99.47;99938.59;5053710;28;20003;-78
2024/01/24 05:10:42;;;;;;;;;;;;;;;0.85;100.00;99932.69;5053653;28;19908;-77
2024/01/24 05:13:07;;;;;;;;;;;;;;;0.85;100.00;99925.34;5071371;28;19912;-78
2024/01/24 05:15:33;;;;;;;;;;;;;;;0.79;100.00;99926.69;5071380;28;19912;-77
2024/01/24 05:17:58;;;;;;;;;;;;;;;0.84;100.00;99933.84;5040152;28;19916;-77
2024/01/24 05:20:23;;;;;;;;;;;;;;;0.80;100.00;99929.09;5071524;28;19916;-77
2024/01/24 05:22:49;;;;;;;;;;;;;;;1.16;100.00;99938.31;5053063;28;20383;-77
2024/01/24 05:25:14;;;;;;;;;;;;;;;1.41;100.00;99939.06;5053686;28;19981;-77
2024/01/24 05:27:39;;;;;;;;;;;;;;;1.50;100.00;99937.00;5053288;28;19969;-79
2024/01/24 05:30:05;;;;;;;;;;;;;;;1.61;100.00;99943.53;5071273;28;19913;-77
2024/01/24 05:32:31;;;;;;;;;;;;;;;1.56;100.00;99943.78;5071291;28;20463;-78
2024/01/24 05:34:56;;;;;;;;;;;;;;;1.63;99.90;99942.03;5071619;28;19908;-77
2024/01/24 05:37:22;;;;;;;;;;;;;;;1.90;99.76;99953.28;5046768;28;19943;-77
2024/01/24 05:39:47;;;;;;;;;;;;;;;2.17;98.64;99943.50;5033219;28;19916;-78
2024/01/24 05:42:13;;;;;;;;;;;;;;;2.41;96.43;99951.53;5051293;28;19944;-77
2024/01/24 05:44:39;;;;;;;;;;;;;;;2.57;95.10;99959.72;5051443;28;19999;-77
2024/01/24 05:47:05;;;;;;;;;;;;;;;2.50;94.14;99971.25;5053346;28;19913;-78
2024/01/24 05:49:33;;;;;;;;;;;;;;;2.45;94.18;99972.31;5053488;28;19931;-78
2024/01/24 05:51:59;;;;;;;;;;;;;;;2.52;94.18;99976.34;5064549;28;19979;-79
2024/01/24 05:54:24;;;;;;;;;;;;;;;2.47;93.25;99975.44;5051355;28;19952;-76
2024/01/24 05:56:49;;;;;;;;;;;;;;;2.44;94.65;99973.44;5052882;28;19965;-78
2024/01/24 05:59:15;;;;;;;;;;;;;;;2.41;94.93;99976.84;5052939;28;19912;-76
2024/01/24 06:01:40;;;;;;;;;;;;;;;2.37;96.10;99978.72;5033460;28;19915;-76
2024/01/24 06:04:05;;;;;;;;;;;;;;;2.29;95.31;99987.06;5033161;28;19998;-78
2024/01/24 06:06:31;;;;;;;;;;;;;;;2.20;95.26;99979.03;5033334;28;19913;-77
2024/01/24 06:08:56;;;;;;;;;;;;;;;2.27;94.79;99981.16;5045944;28;19920;-78
2024/01/24 06:11:22;;;;;;;;;;;;;;;2.19;94.61;99980.19;5052628;28;19916;-77
2024/01/24 06:13:47;;;;;;;;;;;;;;;2.05;95.86;99971.59;5071200;28;19912;-77
2024/01/24 06:16:13;;;;;;;;;;;;;;;2.04;95.23;99970.03;5033753;28;20010;-76
2024/01/24 06:18:38;;;;;;;;;;;;;;;1.93;96.09;99958.06;5045455;28;19916;-77
2024/01/24 06:21:03;;;;;;;;;;;;;;;1.94;97.89;99963.16;5052798;28;19909;-77
2024/01/24 06:23:28;;;;;;;;;;;;;;;1.97;98.29;99967.91;5053266;28;19918;-77
2024/01/24 06:25:54;;;;;;;;;;;;;;;2.08;98.64;99959.22;5052733;28;19908;-77
2024/01/24 06:28:19;;;;;;;;;;;;;;;2.27;97.84;99959.34;5070956;28;19949;-79
2024/01/24 06:30:44;;;;;;;;;;;;;;;2.45;96.95;99963.31;5052875;28;19908;-76
2024/01/24 06:33:10;;;;;;;;;;;;;;;2.65;95.09;99958.75;5060699;28;19915;-78
2024/01/24 06:35:35;;;;;;;;;;;;;;;2.77;94.26;99953.97;5036671;28;19967;-77
2024/01/24 06:38:01;;;;;;;;;;;;;;;2.89;93.95;99949.59;5036670;28;19920;-77
2024/01/24 06:40:26;;;;;;;;;;;;;;;2.89;93.17;99946.84;5055332;28;20053;-77
2024/01/24 06:42:52;;;;;;;;;;;;;;;3.01;92.29;99938.56;5044526;28;19935;-77
2024/01/24 06:45:17;;;;;;;;;;;;;;;3.09;91.60;99943.00;5055093;28;19951;-78
2024/01/24 06:47:43;;;;;;;;;;;;;;;3.15;91.00;99947.03;5074673;28;19916;-78
2024/01/24 06:50:12;;;;;;;;;;;;;;;3.18;90.75;99954.53;5069267;28;20436;-78
2024/01/24 06:52:38;;;;;;;;;;;;;;;3.25;90.42;99963.66;5048423;28;19948;-77
2024/01/24 06:55:03;;;;;;;;;;;;;;;3.32;89.61;99963.03;5050620;28;20412;-77
2024/01/24 06:57:29;;;;;;;;;;;;;;;3.39;89.01;99979.56;5035816;28;19913;-79
2024/01/24 06:59:54;;;;;;;;;;;;;;;3.42;88.47;99972.63;5054035;28;19939;-79
2024/01/24 07:02:19;;;;;;;;;;;;;;;3.55;87.59;99974.09;5054264;28;20384;-77
2024/01/24 07:04:45;;;;;;;;;;;;;;;3.61;87.58;99984.38;5049495;28;19915;-79
2024/01/24 07:07:10;;;;;;;;;;;;;;;3.63;87.67;99973.06;5054096;28;20400;-76
2024/01/24 07:09:36;;;;;;;;;;;;;;;3.67;86.84;99957.56;5054117;28;20431;-77
2024/01/24 07:12:02;;;;;;;;;;;;;;;3.84;84.98;99972.72;5065790;28;20021;-78
2024/01/24 07:14:27;;;;;;;;;;;;;;;3.95;84.33;99977.25;5057101;28;19908;-77
2024/01/24 07:16:53;;;;;;;;;;;;;;;4.09;83.94;99976.75;5058745;28;19920;-77
2024/01/24 07:19:18;;;;;;;;;;;;;;;4.17;83.81;99969.44;5053750;28;20320;-76
2024/01/24 07:21:43;;;;;;;;;;;;;;;4.23;82.70;99978.94;5056846;28;19920;-75
2024/01/24 07:24:09;;;;;;;;;;;;;;;4.32;81.86;99988.50;5051740;28;19923;-77
2024/01/24 07:26:35;;;;;;;;;;;;;;;4.44;80.77;99987.53;5038614;28;19916;-76
2024/01/24 07:29:00;;;;;;;;;;;;;;;4.55;79.95;99984.97;5057113;28;19916;-78
2024/01/24 07:31:25;;;;;;;;;;;;;;;4.61;78.21;99973.38;5057573;28;19942;-78
2024/01/24 07:33:50;;;;;;;;;;;;;;;4.79;75.90;99990.88;5037423;28;19970;-77
2024/01/24 07:36:16;;;;;;;;;;;;;;;4.94;75.06;99994.66;5046976;28;19955;-77
2024/01/24 07:38:41;;;;;;;;;;;;;;;5.03;74.81;99989.69;5073176;28;19912;-78
2024/01/24 07:41:07;;;;;;;;;;;;;;;5.11;75.67;99996.09;5073382;28;19908;-78
2024/01/24 07:43:33;;;;;;;;;;;;;;;5.13;75.21;99988.28;5050723;28;20407;-78
2024/01/24 07:45:58;;;;;;;;;;;;;;;5.18;73.37;99999.72;5035026;28;20472;-77
2024/01/24 07:48:23;;;;;;;;;;;;;;;5.24;73.16;100000.19;5039041;28;19912;-77
2024/01/24 07:50:49;;;;;;;;;;;;;;;5.33;73.40;99995.22;5073188;28;19916;-78
2024/01/24 07:53:14;;;;;;;;;;;;;;;5.35;73.27;100001.16;5051668;28;20373;-78
2024/01/24 07:55:39;;;;;;;;;;;;;;;5.35;73.52;100001.16;5053413;28;19913;-77
2024/01/24 07:58:05;;;;;;;;;;;;;;;5.45;72.58;100005.97;5035637;28;19912;-78
2024/01/24 08:00:30;;;;;;;;;;;;;;;5.63;71.30;100012.50;5062635;28;20387;-79
2024/01/24 08:02:58;;;;;;;;;;;;;;;5.74;70.10;100029.88;5054968;28;19928;-79
2024/01/24 08:05:23;;;;;;;;;;;;;;;5.87;71.06;100019.50;5054999;28;20033;-78
2024/01/24 08:07:50;;;;;;;;;;;;;;;5.95;70.38;100028.63;5054760;28;20007;-78
2024/01/24 08:10:15;;;;;;;;;;;;;;;6.11;69.68;100030.00;5072796;28;19912;-79
2024/01/24 08:12:41;;;;;;;;;;;;;;;6.18;66.82;100025.75;5051317;28;19913;-78
2024/01/24 08:15:07;;;;;;;;;;;;;;;6.25;67.12;100014.84;5034891;28;19912;-79
2024/01/24 08:17:33;;;;;;;;;;;;;;;6.27;66.83;100023.53;5038156;28;19923;-76
2024/01/24 08:19:58;;;;;;;;;;;;;;;6.23;66.31;100030.91;5054715;28;19916;-77
2024/01/24 08:22:26;;;;;;;;;;;;;;;6.16;65.51;100039.84;5037761;28;19916;-77
2024/01/24 08:24:51;;;;;;;;;;;;;;;6.18;65.41;100036.72;5062767;28;19908;-78
2024/01/24 08:27:17;;;;;;;;;;;;;;;6.21;64.17;100036.00;5054386;28;19920;-79
2024/01/24 08:29:43;;;;;;;;;;;;;;;6.22;64.72;100041.09;5054570;28;20319;-78
2024/01/24 08:32:08;;;;;;;;;;;;;;;6.31;64.98;100044.34;5054341;28;19908;-80
2024/01/24 08:34:37;;;;;;;;;;;;;;;6.38;65.73;100044.44;5044503;28;19915;-78
2024/01/24 08:37:02;;;;;;;;;;;;;;;6.42;65.28;100045.25;5035045;28;19922;-76
2024/01/24 08:39:27;;;;;;;;;;;;;;;6.56;65.71;100050.09;5052349;28;19913;-77
2024/01/24 08:41:53;;;;;;;;;;;;;;;6.60;63.90;100048.19;5052245;28;19920;-79
2024/01/24 08:44:18;;;;;;;;;;;;;;;6.68;63.83;100049.06;5034720;28;19920;-78
2024/01/24 08:46:43;;;;;;;;;;;;;;;6.67;64.82;100050.22;5034219;28;19912;-77
2024/01/24 08:49:12;;;;;;;;;;;;;;;6.71;64.40;100054.56;5052115;28;19977;-78
2024/01/24 08:51:37;;;;;;;;;;;;;;;6.86;63.46;100039.81;5033944;28;19920;-77
2024/01/24 08:54:03;;;;;;;;;;;;;;;6.89;60.81;100049.25;5062779;28;19917;-78
2024/01/24 08:56:28;;;;;;;;;;;;;;;6.88;58.74;100042.16;5053198;28;19923;-78
2024/01/24 08:58:53;;;;;;;;;;;;;;;6.84;57.69;100039.38;5054013;28;19916;-78
2024/01/24 09:01:19;;;;;;;;;;;;;;;6.91;59.35;100047.69;5071467;28;19921;-79
2024/01/24 09:03:46;;;;;;;;;;;;;;;6.93;60.62;100039.84;5063185;28;19913;-78
2024/01/24 09:06:12;;;;;;;;;;;;;;;7.04;61.46;100036.44;5071609;28;19908;-79
2024/01/24 09:08:37;;;;;;;;;;;;;;;7.11;61.30;100036.50;5071894;28;20003;-78
2024/01/24 09:11:03;;;;;;;;;;;;;;;7.11;57.80;100029.03;5053741;28;19912;-78
2024/01/24 09:13:28;;;;;;;;;;;;;;;7.07;58.65;100022.72;5043629;28;19908;-78
2024/01/24 09:15:54;;;;;;;;;;;;;;;7.07;57.39;100016.41;5047003;28;19934;-77
2024/01/24 09:18:19;;;;;;;;;;;;;;;7.15;57.65;100016.09;5043809;28;19924;-78
2024/01/24 09:20:44;;;;;;;;;;;;;;;7.19;57.39;100019.66;5071608;28;19912;-77
2024/01/24 09:23:10;;;;;;;;;;;;;;;7.16;58.20;100014.94;5071644;28;19908;-78
2024/01/24 09:25:35;;;;;;;;;;;;;;;7.17;57.74;100005.50;5040177;28;19912;-79
2024/01/24 09:28:00;;;;;;;;;;;;;;;7.22;57.85;100015.38;5044209;28;20017;-78
2024/01/24 09:30:26;;;;;;;;;;;;;;;7.26;57.22;100007.94;5064792;28;20008;-78
2024/01/24 09:32:51;;;;;;;;;;;;;;;7.32;57.72;100009.94;5033627;28;19913;-78
2024/01/24 09:35:17;;;;;;;;;;;;;;;7.33;57.13;100011.53;5049416;28;19912;-79
2024/01/24 09:37:43;;;;;;;;;;;;;;;7.27;57.79;100006.75;5062275;28;19921;-78
2024/01/24 09:40:09;;;;;;;;;;;;;;;7.33;57.03;100008.78;5033558;28;20385;-78
2024/01/24 09:42:41;;;;;;;;;;;;;;;7.35;56.33;100011.91;5033697;28;19913;-77
2024/01/24 09:45:07;;;;;;;;;;;;;;;7.30;57.01;100003.22;5033339;28;19909;-78
2024/01/24 09:47:32;;;;;;;;;;;;;;;7.27;56.92;99999.31;5043669;28;20011;-78
2024/01/24 09:49:59;;;;;;;;;;;;;;;7.36;55.72;99994.25;5053154;28;19991;-78
2024/01/24 09:52:26;;;;;;;;;;;;;;;7.40;56.09;99980.53;5053360;28;19909;-78
2024/01/24 09:54:59;;;;;;;;;;;;;;;7.46;56.15;99972.72;5053195;28;19914;-78
2024/01/24 09:57:26;;;;;;;;;;;;;;;7.40;56.31;99972.28;5060064;28;19912;-78
2024/01/24 09:59:51;;;;;;;;;;;;;;;7.32;55.41;99963.22;5064497;28;20007;-77
2024/01/24 10:02:17;;;;;;;;;;;;;;;7.30;57.28;99951.78;5062506;28;19936;-78
2024/01/24 10:04:43;;;;;;;;;;;;;;;7.23;55.88;99953.72;5071297;28;20382;-77
2024/01/24 10:07:09;;;;;;;;;;;;;;;7.31;57.12;99950.63;5071456;28;19912;-77
2024/01/24 10:09:34;;;;;;;;;;;;;;;7.33;59.16;99945.53;5052173;28;19908;-77
2024/01/24 10:12:00;;;;;;;;;;;;;;;7.38;59.93;99935.34;5037385;28;19948;-78
2024/01/24 10:14:25;;;;;;;;;;;;;;;7.38;58.10;99943.59;5036825;28;19909;-78
2024/01/24 10:16:50;;;;;;;;;;;;;;;7.48;59.09;99932.66;5054560;28;20454;-78
2024/01/24 10:19:18;;;;;;;;;;;;;;;7.38;59.39;99930.63;5059458;28;20385;-78
2024/01/24 10:21:43;;;;;;;;;;;;;;;7.34;59.41;99922.38;5057159;28;19912;-77
2024/01/24 10:24:09;;;;;;;;;;;;;;;7.43;59.07;99919.28;5052043;28;19908;-78
2024/01/24 10:26:35;;;;;;;;;;;;;;;7.47;58.53;99919.31;5055112;28;19913;-78
2024/01/24 10:29:00;;;;;;;;;;;;;;;7.46;56.71;99915.75;5037063;28;19923;-79
2024/01/24 10:31:25;;;;;;;;;;;;;;;7.45;57.55;99908.69;5048794;28;19923;-77
2024/01/24 10:33:57;;;;;;;;;;;;;;;7.57;55.77;99902.84;5043371;28;19919;-79
2024/01/24 10:36:23;;;;;;;;;;;;;;;7.59;55.13;99905.22;5062040;28;19955;-77
2024/01/24 10:38:49;;;;;;;;;;;;;;;7.69;55.30;99898.97;5042248;28;19913;-78
2024/01/24 10:41:15;;;;;;;;;;;;;;;7.61;52.30;99902.84;5074794;28;19916;-78
2024/01/24 10:43:45;;;;;;;;;;;;;;;7.76;53.63;99897.03;5055230;28;19912;-77
2024/01/24 10:46:11;;;;;;;;;;;;;;;7.78;53.80;99889.16;5049971;28;20003;-78
2024/01/24 10:48:37;;;;;;;;;;;;;;;7.86;55.43;99897.44;5069487;28;19940;-77
2024/01/24 10:51:02;;;;;;;;;;;;;;;7.80;54.29;99883.28;5054662;28;19920;-78
2024/01/24 10:53:29;;;;;;;;;;;;;;;7.86;53.02;99887.22;5041980;28;19908;-77
2024/01/24 10:55:56;;;;;;;;;;;;;;;7.93;53.41;99883.69;5064498;28;19947;-78
2024/01/24 10:58:22;;;;;;;;;;;;;;;8.01;54.23;99872.31;5037785;28;19912;-78
2024/01/24 11:00:47;;;;;;;;;;;;;;;8.05;53.01;99873.09;5049146;28;19974;-77
2024/01/24 11:03:13;;;;;;;;;;;;;;;8.07;52.92;99870.75;5056355;28;19923;-78
2024/01/24 11:05:54;;;;;;;;;;;;;;;8.05;52.25;99870.34;5049782;28;19913;-78
2024/01/24 11:08:24;;;;;;;;;;;;;;;8.07;54.91;99848.75;5074144;28;19923;-78
2024/01/24 11:10:53;;;;;;;;;;;;;;;8.12;56.67;99845.59;5059063;28;20123;-76
2024/01/24 11:13:21;;;;;;;;;;;;;;;8.20;52.62;99845.59;5055879;28;19920;-76
2024/01/24 11:15:47;;;;;;;;;;;;;;;8.19;51.01;99847.56;5040605;28;19978;-78
2024/01/24 11:18:21;;;;;;;;;;;;;;;8.23;52.20;99840.09;5044535;28;19971;-78
2024/01/24 11:20:48;;;;;;;;;;;;;;;8.25;53.26;99826.72;5041779;28;19928;-78
2024/01/24 11:23:38;;;;;;;;;;;;;;;8.26;53.89;99817.28;5073866;28;20420;-78
2024/01/24 11:26:03;;;;;;;;;;;;;;;8.26;54.09;99816.50;5042671;28;19909;-79
2024/01/24 11:28:29;;;;;;;;;;;;;;;8.28;52.86;99808.63;5042227;28;20289;-80
2024/01/24 11:30:54;;;;;;;;;;;;;;;8.31;53.36;99807.88;5055558;28;20001;-79
2024/01/24 11:33:20;;;;;;;;;;;;;;;8.29;52.64;99799.19;5055567;28;20479;-78
2024/01/24 11:35:46;;;;;;;;;;;;;;;8.28;53.00;99798.41;5055442;28;20395;-79
2024/01/24 11:38:19;;;;;;;;;;;;;;;8.25;52.85;99801.16;5042432;28;19915;-78
2024/01/24 11:40:44;;;;;;;;;;;;;;;8.30;53.66;99798.00;5060684;28;19920;-78
2024/01/24 11:43:25;;;;;;;;;;;;;;;8.32;50.35;99787.44;5041278;28;20359;-77
2024/01/24 11:45:53;;;;;;;;;;;;;;;8.35;51.79;99786.63;5035998;28;19939;-80
2024/01/24 11:48:19;;;;;;;;;;;;;;;8.34;49.24;99796.84;5038659;28;19999;-78
2024/01/24 11:50:46;;;;;;;;;;;;;;;8.43;50.17;99799.22;5062970;28;20003;-78
2024/01/24 11:53:11;;;;;;;;;;;;;;;8.49;51.83;99790.16;5066682;28;20376;-79
2024/01/24 11:55:36;;;;;;;;;;;;;;;8.40;52.57;99788.97;5062905;28;20014;-78
2024/01/24 11:58:03;;;;;;;;;;;;;;;8.37;54.41;99784.28;5069236;28;20418;-78
2024/01/24 12:00:28;;;;;;;;;;;;;;;8.37;54.66;99792.53;5035116;28;20015;-78
2024/01/24 12:02:53;;;;;;;;;;;;;;;8.49;52.70;99781.13;5035403;28;20002;-77
2024/01/24 12:05:20;;;;;;;;;;;;;;;8.56;54.09;99779.09;5045220;28;19908;-78
2024/01/24 12:07:45;;;;;;;;;;;;;;;8.51;52.42;99774.00;5069651;28;20434;-79
2024/01/24 12:10:11;;;;;;;;;;;;;;;8.52;51.34;99769.28;5063369;28;20003;-78
2024/01/24 12:12:36;;;;;;;;;;;;;;;8.51;51.34;99774.00;5034867;28;20373;-78
2024/01/24 12:15:02;;;;;;;;;;;;;;;8.39;51.88;99766.16;5052860;28;19913;-79
2024/01/24 12:17:27;;;;;;;;;;;;;;;8.47;54.14;99755.94;5051055;28;19916;-78
2024/01/24 12:19:52;;;;;;;;;;;;;;;8.51;52.99;99756.69;5054610;28;19922;-76
2024/01/24 12:22:18;;;;;;;;;;;;;;;8.41;52.21;99746.50;5056535;28;19913;-77
2024/01/24 12:24:43;;;;;;;;;;;;;;;8.49;54.46;99745.31;5034701;28;19918;-77
2024/01/24 12:27:09;;;;;;;;;;;;;;;8.50;47.50;99739.38;5052568;28;20336;-78
2024/01/24 12:29:34;;;;;;;;;;;;;;;8.64;48.62;99744.09;5052363;28;19962;-78
2024/01/24 12:32:00;;;;;;;;;;;;;;;8.67;48.18;99742.50;5068122;28;19986;-78
2024/01/24 12:34:28;;;;;;;;;;;;;;;8.61;47.71;99736.63;5062949;28;20381;-78
2024/01/24 12:36:55;;;;;;;;;;;;;;;8.53;48.78;99726.81;5050640;28;20454;-76
2024/01/24 12:39:46;;;;;;;;;;;;;;;8.64;47.65;99729.53;5044485;28;19917;-79
2024/01/24 12:42:12;;;;;;;;;;;;;;;8.73;45.35;99713.38;5040028;28;20312;-78
2024/01/24 12:44:38;;;;;;;;;;;;;;;8.74;46.78;99717.69;5054117;28;19914;-76
2024/01/24 12:47:03;;;;;;;;;;;;;;;8.64;51.12;99708.28;5054024;28;19915;-77